Time;durP1;ratioP1;P1;durP2;ratioP2;P2;SDS_P1;SDS_P2;PMS_P1;PMS_P2;Temp;Humidity;BMP_temperature;BMP_pressure;BME280_temperature;BME280_humidity;BME280_pressure;Samples;Min_cycle;Max_cycle;Signal;HPM_P1;HPM_P2
2021/10/05 00:01:56;;;;;;;27.33;16.30;;;;;;;;;;6283627;28;20040;-68
2021/10/05 00:04:58;;;;;;;23.95;16.20;;;;;;;;;;6290480;28;20392;-82
2021/10/05 00:07:59;;;;;;;22.20;15.65;;;;;;;;;;6289690;28;20051;-68
2021/10/05 00:11:01;;;;;;;24.67;14.98;;;;;;;;;;6297618;28;20049;-68
2021/10/05 00:14:04;;;;;;;21.55;14.98;;;;;;;;;;6292716;28;20089;-74
2021/10/05 00:17:06;;;;;;;23.98;14.40;;;;;;;;;;6281593;28;21301;-69
2021/10/05 00:20:09;;;;;;;21.63;15.38;;;;;;;;;;6280940;28;20076;-82
2021/10/05 00:23:10;;;;;;;22.58;14.43;;;;;;;;;;6278448;28;20098;-71
2021/10/05 00:26:12;;;;;;;25.42;15.40;;;;;;;;;;6286071;28;20063;-69
2021/10/05 00:29:15;;;;;;;21.73;14.45;;;;;;;;;;6283286;28;20048;-69
2021/10/05 00:32:16;;;;;;;24.07;15.40;;;;;;;;;;6278962;28;20426;-80
2021/10/05 00:35:18;;;;;;;21.65;14.35;;;;;;;;;;6281907;28;20465;-80
2021/10/05 00:38:20;;;;;;;21.65;14.55;;;;;;;;;;6280146;28;20076;-72
2021/10/05 00:41:21;;;;;;;21.17;13.45;;;;;;;;;;6282703;28;20558;-71
2021/10/05 00:44:35;;;;;;;19.80;13.55;;;;;;;;;;6283278;28;20044;-77
2021/10/05 00:47:37;;;;;;;20.38;13.60;;;;;;;;;;6275072;28;20052;-70
2021/10/05 00:50:38;;;;;;;18.88;14.05;;;;;;;;;;6277160;28;20520;-71
2021/10/05 00:53:40;;;;;;;17.73;12.80;;;;;;;;;;6281918;28;20089;-71
2021/10/05 00:56:42;;;;;;;20.73;13.18;;;;;;;;;;6278234;28;20159;-78
2021/10/05 00:59:44;;;;;;;18.27;13.30;;;;;;;;;;6283536;28;20194;-80
2021/10/05 01:02:46;;;;;;;18.73;12.23;;;;;;;;;;6271135;28;20055;-71
2021/10/05 01:05:48;;;;;;;16.95;12.40;;;;;;;;;;6278654;28;20048;-73
2021/10/05 01:08:49;;;;;;;21.05;13.63;;;;;;;;;;6282050;28;20129;-81
2021/10/05 01:11:51;;;;;;;17.23;12.55;;;;;;;;;;6278004;28;20097;-75
2021/10/05 01:14:54;;;;;;;20.65;13.30;;;;;;;;;;6289552;28;20040;-74
2021/10/05 01:17:56;;;;;;;18.90;12.90;;;;;;;;;;6280839;28;20068;-69
2021/10/05 01:21:00;;;;;;;17.55;12.77;;;;;;;;;;6283711;28;20480;-69
2021/10/05 01:24:07;;;;;;;19.52;12.48;;;;;;;;;;6290586;28;20043;-69
2021/10/05 01:27:08;;;;;;;17.65;13.38;;;;;;;;;;6285780;28;20127;-69
2021/10/05 01:30:10;;;;;;;18.27;12.80;;;;;;;;;;6291266;28;20047;-79
2021/10/05 01:33:12;;;;;;;17.25;13.30;;;;;;;;;;6283391;28;20616;-76
2021/10/05 01:36:15;;;;;;;21.75;12.60;;;;;;;;;;6284666;28;20045;-69
2021/10/05 01:39:22;;;;;;;16.67;12.37;;;;;;;;;;6290361;28;20069;-70
2021/10/05 01:42:23;;;;;;;17.40;12.73;;;;;;;;;;6284933;28;20048;-69
2021/10/05 01:45:25;;;;;;;17.17;12.30;;;;;;;;;;6285245;28;20063;-82
2021/10/05 01:48:26;;;;;;;17.35;12.88;;;;;;;;;;6285325;28;20106;-69
2021/10/05 01:51:29;;;;;;;17.38;12.48;;;;;;;;;;6279115;28;20051;-70
2021/10/05 01:54:31;;;;;;;19.97;13.30;;;;;;;;;;6290747;28;20127;-68
2021/10/05 01:57:32;;;;;;;16.20;11.52;;;;;;;;;;6288022;28;20045;-69
2021/10/05 02:00:34;;;;;;;17.63;12.48;;;;;;;;;;6287818;28;20123;-82
2021/10/05 02:03:36;;;;;;;21.75;13.23;;;;;;;;;;6288447;28;20052;-68
2021/10/05 02:06:40;;;;;;;19.45;13.25;;;;;;;;;;6288844;28;20199;-70
2021/10/05 02:09:47;;;;;;;21.00;14.05;;;;;;;;;;6296717;28;20056;-71
2021/10/05 02:12:49;;;;;;;20.42;12.88;;;;;;;;;;6288050;28;20049;-68
2021/10/05 02:15:51;;;;;;;19.25;13.40;;;;;;;;;;6289103;28;20546;-69
2021/10/05 02:18:52;;;;;;;21.38;14.70;;;;;;;;;;6286758;28;20131;-72
2021/10/05 02:21:55;;;;;;;19.35;12.80;;;;;;;;;;6294706;28;20072;-68
2021/10/05 02:24:57;;;;;;;20.83;13.93;;;;;;;;;;6297566;28;20083;-68
2021/10/05 02:27:58;;;;;;;18.15;13.15;;;;;;;;;;6293158;28;20060;-71
2021/10/05 02:31:00;;;;;;;20.13;13.95;;;;;;;;;;6290148;28;20044;-71
2021/10/05 02:34:01;;;;;;;21.58;13.63;;;;;;;;;;6293655;28;20061;-68
2021/10/05 02:37:05;;;;;;;16.38;12.43;;;;;;;;;;6291596;28;20457;-68
2021/10/05 02:40:08;;;;;;;;;;;;;;;;;;6297018;28;20152;-77
2021/10/05 02:43:10;;;;;;;20.75;13.60;;;;;;;;;;6294154;28;20003;-72
2021/10/05 02:46:11;;;;;;;21.70;14.38;;;;;;;;;;6290487;28;20045;-68
2021/10/05 02:49:13;;;;;;;20.73;15.00;;;;;;;;;;6280358;28;20633;-68
2021/10/05 02:52:17;;;;;;;25.58;15.63;;;;;;;;;;6292088;28;20071;-69
2021/10/05 02:55:19;;;;;;;26.65;16.88;;;;;;;;;;6295494;28;20528;-77
2021/10/05 02:58:21;;;;;;;21.17;17.25;;;;;;;;;;6297371;28;20544;-73
2021/10/05 03:01:22;;;;;;;22.77;16.27;;;;;;;;;;6290111;28;20534;-69
2021/10/05 03:04:24;;;;;;;20.52;15.43;;;;;;;;;;6294086;28;20052;-69
2021/10/05 03:07:27;;;;;;;18.73;14.43;;;;;;;;;;6289256;28;21777;-80
2021/10/05 03:10:29;;;;;;;22.60;14.30;;;;;;;;;;6288178;28;20048;-78
2021/10/05 03:13:33;;;;;;;20.75;14.02;;;;;;;;;;6294915;28;20040;-68
2021/10/05 03:16:35;;;;;;;19.77;14.20;;;;;;;;;;6290962;28;20060;-78
2021/10/05 03:19:37;;;;;;;24.23;14.50;;;;;;;;;;6296327;28;20539;-68
2021/10/05 03:22:40;;;;;;;21.17;15.38;;;;;;;;;;6290170;28;20575;-68
2021/10/05 03:25:41;;;;;;;18.43;14.77;;;;;;;;;;6287458;28;20045;-68
2021/10/05 03:28:43;;;;;;;21.60;14.13;;;;;;;;;;6296735;28;20139;-68
2021/10/05 03:31:45;;;;;;;22.80;15.27;;;;;;;;;;6283867;28;20491;-68
2021/10/05 03:34:46;;;;;;;18.67;14.80;;;;;;;;;;6291708;28;20067;-68
2021/10/05 03:37:49;;;;;;;18.30;14.50;;;;;;;;;;6286216;28;20070;-71
2021/10/05 03:40:51;;;;;;;19.43;13.70;;;;;;;;;;6290426;28;20041;-75
2021/10/05 03:43:52;;;;;;;18.90;13.90;;;;;;;;;;6293130;28;20045;-68
2021/10/05 03:46:54;;;;;;;18.55;13.57;;;;;;;;;;6286853;28;20134;-69
2021/10/05 03:49:56;;;;;;;19.00;14.45;;;;;;;;;;6293227;28;20041;-80
2021/10/05 03:52:59;;;;;;;20.65;14.50;;;;;;;;;;6286671;28;20155;-70
2021/10/05 03:56:00;;;;;;;19.97;14.10;;;;;;;;;;6289743;28;20044;-69
2021/10/05 03:59:02;;;;;;;22.85;13.50;;;;;;;;;;6293614;28;20041;-68
2021/10/05 04:02:04;;;;;;;18.67;13.65;;;;;;;;;;6285383;28;20389;-69
2021/10/05 04:05:07;;;;;;;17.48;13.93;;;;;;;;;;6287959;28;20143;-82
2021/10/05 04:08:10;;;;;;;19.40;15.45;;;;;;;;;;6291288;28;20052;-71
2021/10/05 04:11:13;;;;;;;20.70;15.88;;;;;;;;;;6285687;28;20053;-69
2021/10/05 04:14:14;;;;;;;24.37;15.70;;;;;;;;;;6293358;28;20053;-68
2021/10/05 04:17:16;;;;;;;20.25;14.82;;;;;;;;;;6281041;28;20074;-79
2021/10/05 04:20:18;;;;;;;20.08;14.60;;;;;;;;;;6287780;28;20287;-79
2021/10/05 04:23:20;;;;;;;19.80;14.55;;;;;;;;;;6290222;28;20123;-69
2021/10/05 04:26:22;;;;;;;18.33;14.77;;;;;;;;;;6288895;28;20128;-69
2021/10/05 04:29:24;;;;;;;20.77;14.80;;;;;;;;;;6292716;28;20048;-68
2021/10/05 04:32:26;;;;;;;19.98;14.65;;;;;;;;;;6283109;28;20504;-69
2021/10/05 04:35:27;;;;;;;19.92;14.52;;;;;;;;;;6286094;28;20155;-75
2021/10/05 04:38:30;;;;;;;22.17;15.93;;;;;;;;;;6291170;28;20040;-69
2021/10/05 04:41:32;;;;;;;21.77;15.50;;;;;;;;;;6287818;28;20040;-68
2021/10/05 04:44:33;;;;;;;23.65;15.90;;;;;;;;;;6292029;28;20385;-69
2021/10/05 04:47:36;;;;;;;19.55;15.45;;;;;;;;;;6265961;28;20083;-69
2021/10/05 04:50:37;;;;;;;21.83;15.25;;;;;;;;;;6285045;28;20079;-69
2021/10/05 04:53:40;;;;;;;22.73;16.75;;;;;;;;;;6291504;28;20059;-68
2021/10/05 04:56:42;;;;;;;23.70;15.83;;;;;;;;;;6287915;28;20694;-73
2021/10/05 04:59:43;;;;;;;24.90;18.15;;;;;;;;;;6291551;28;20052;-70
2021/10/05 05:02:45;;;;;;;26.08;16.17;;;;;;;;;;6283413;28;20059;-70
2021/10/05 05:05:46;;;;;;;23.42;17.20;;;;;;;;;;6283621;28;20052;-69
2021/10/05 05:08:49;;;;;;;22.08;17.00;;;;;;;;;;6290069;28;20036;-69
2021/10/05 05:11:51;;;;;;;27.27;16.70;;;;;;;;;;6280756;28;20131;-73
2021/10/05 05:14:52;;;;;;;22.25;16.92;;;;;;;;;;6293005;28;20055;-68
2021/10/05 05:17:54;;;;;;;23.75;16.60;;;;;;;;;;6280657;28;20051;-69
2021/10/05 05:20:56;;;;;;;21.75;16.77;;;;;;;;;;6283829;28;20181;-68
2021/10/05 05:23:59;;;;;;;24.73;17.98;;;;;;;;;;6293618;28;20127;-69
2021/10/05 05:27:00;;;;;;;23.33;17.20;;;;;;;;;;6280208;28;20394;-70
2021/10/05 05:30:02;;;;;;;26.45;18.02;;;;;;;;;;6286949;28;20119;-70
2021/10/05 05:33:04;;;;;;;24.38;16.88;;;;;;;;;;6273326;28;20116;-71
2021/10/05 05:36:05;;;;;;;20.88;16.17;;;;;;;;;;6276482;28;20040;-72
2021/10/05 05:39:08;;;;;;;25.02;17.08;;;;;;;;;;6284760;28;20053;-70
2021/10/05 05:42:10;;;;;;;24.93;17.83;;;;;;;;;;6277397;28;20174;-69
2021/10/05 05:45:12;;;;;;;26.00;18.17;;;;;;;;;;6283087;28;20048;-76
2021/10/05 05:48:14;;;;;;;24.73;17.42;;;;;;;;;;6278252;28;20093;-70
2021/10/05 05:51:16;;;;;;;22.95;17.58;;;;;;;;;;6277154;28;20036;-69
2021/10/05 05:54:19;;;;;;;23.65;17.60;;;;;;;;;;6287366;28;20098;-69
2021/10/05 05:57:21;;;;;;;23.90;17.13;;;;;;;;;;6281657;28;20143;-69
2021/10/05 06:00:23;;;;;;;22.42;17.17;;;;;;;;;;6286562;28;20055;-79
2021/10/05 06:03:24;;;;;;;22.83;15.95;;;;;;;;;;6292387;28;20506;-71
2021/10/05 06:06:29;;;;;;;21.90;16.20;;;;;;;;;;6289090;28;20056;-69
2021/10/05 06:09:33;;;;;;;27.10;15.90;;;;;;;;;;6288679;28;20040;-70
2021/10/05 06:12:39;;;;;;;22.65;16.60;;;;;;;;;;6282236;28;20176;-69
2021/10/05 06:15:40;;;;;;;23.15;16.70;;;;;;;;;;6281639;28;20902;-72
2021/10/05 06:18:42;;;;;;;22.30;13.95;;;;;;;;;;6286751;28;20114;-71
2021/10/05 06:21:44;;;;;;;20.10;15.00;;;;;;;;;;6261958;28;20105;-70
2021/10/05 06:24:47;;;;;;;21.80;14.93;;;;;;;;;;6283750;28;20045;-70
2021/10/05 06:27:48;;;;;;;19.47;14.33;;;;;;;;;;6279136;28;20599;-71
2021/10/05 06:30:50;;;;;;;19.50;14.85;;;;;;;;;;6287889;28;20105;-69
2021/10/05 06:33:52;;;;;;;18.45;14.45;;;;;;;;;;6273594;28;20049;-70
2021/10/05 06:36:53;;;;;;;17.98;14.18;;;;;;;;;;6287508;28;20135;-71
2021/10/05 06:39:56;;;;;;;20.52;13.85;;;;;;;;;;6288427;28;20250;-72
2021/10/05 06:42:58;;;;;;;24.03;14.90;;;;;;;;;;6285745;28;20631;-71
2021/10/05 06:46:00;;;;;;;20.20;13.88;;;;;;;;;;6288179;28;20476;-69
2021/10/05 06:49:01;;;;;;;19.63;14.23;;;;;;;;;;6297845;28;20052;-69
2021/10/05 06:52:03;;;;;;;17.98;13.45;;;;;;;;;;6278865;28;20377;-70
2021/10/05 06:55:07;;;;;;;17.88;13.27;;;;;;;;;;6292533;28;20037;-77
2021/10/05 06:58:09;;;;;;;16.75;11.82;;;;;;;;;;6294476;28;20621;-70
2021/10/05 07:01:10;;;;;;;20.17;11.65;;;;;;;;;;6289833;28;20174;-71
2021/10/05 07:04:12;;;;;;;14.82;11.48;;;;;;;;;;6290272;28;20052;-71
2021/10/05 07:07:13;;;;;;;15.88;10.82;;;;;;;;;;6288551;28;20080;-69
2021/10/05 07:10:18;;;;;;;16.73;9.38;;;;;;;;;;6288231;28;20051;-77
2021/10/05 07:13:19;;;;;;;10.75;8.82;;;;;;;;;;6285577;28;20048;-70
2021/10/05 07:16:21;;;;;;;11.65;8.45;;;;;;;;;;6282254;28;20052;-72
2021/10/05 07:19:22;;;;;;;9.40;7.85;;;;;;;;;;6285273;28;20047;-69
2021/10/05 07:22:24;;;;;;;11.90;8.02;;;;;;;;;;6287626;28;20173;-78
2021/10/05 07:25:28;;;;;;;12.07;8.75;;;;;;;;;;6287128;28;20522;-76
2021/10/05 07:28:29;;;;;;;12.35;7.90;;;;;;;;;;6296114;28;20145;-69
2021/10/05 07:31:35;;;;;;;9.45;7.15;;;;;;;;;;6283439;28;20060;-78
2021/10/05 07:34:36;;;;;;;9.73;7.18;;;;;;;;;;6286199;28;20182;-69
2021/10/05 07:37:38;;;;;;;10.85;6.97;;;;;;;;;;6283898;28;20052;-72
2021/10/05 07:40:41;;;;;;;9.27;6.70;;;;;;;;;;6280893;28;20456;-69
2021/10/05 07:43:42;;;;;;;9.40;5.75;;;;;;;;;;6293612;28;20040;-72
2021/10/05 07:46:44;;;;;;;10.38;6.10;;;;;;;;;;6286114;28;20506;-70
2021/10/05 07:49:45;;;;;;;9.30;5.82;;;;;;;;;;6287441;28;20509;-70
2021/10/05 07:52:47;;;;;;;9.88;4.30;;;;;;;;;;6279384;28;20040;-71
2021/10/05 07:55:50;;;;;;;7.95;4.15;;;;;;;;;;6282583;28;20556;-73
2021/10/05 07:58:52;;;;;;;11.73;4.15;;;;;;;;;;6286981;28;20132;-70
2021/10/05 08:01:54;;;;;;;6.47;4.25;;;;;;;;;;6277848;28;20286;-69
2021/10/05 08:04:56;;;;;;;8.18;3.63;;;;;;;;;;6286577;28;20049;-78
2021/10/05 08:07:59;;;;;;;6.20;2.40;;;;;;;;;;6279521;28;20048;-74
2021/10/05 08:11:02;;;;;;;7.03;2.28;;;;;;;;;;6283331;28;20132;-71
2021/10/05 08:14:03;;;;;;;9.38;2.90;;;;;;;;;;6288379;28;20067;-69
2021/10/05 08:17:05;;;;;;;4.72;1.83;;;;;;;;;;6274846;28;20391;-69
2021/10/05 08:20:10;;;;;;;7.40;1.75;;;;;;;;;;6284131;28;20223;-72
2021/10/05 08:23:11;;;;;;;7.28;1.85;;;;;;;;;;6282867;28;20462;-70
2021/10/05 08:26:14;;;;;;;4.97;1.77;;;;;;;;;;6268055;28;20049;-69
2021/10/05 08:29:18;;;;;;;7.68;1.90;;;;;;;;;;6288240;28;20098;-69
2021/10/05 08:32:20;;;;;;;7.38;1.83;;;;;;;;;;6271094;28;20037;-69
2021/10/05 08:35:22;;;;;;;3.88;1.42;;;;;;;;;;6277335;28;20089;-75
2021/10/05 08:38:23;;;;;;;7.43;1.38;;;;;;;;;;6290237;28;20044;-70
2021/10/05 08:41:26;;;;;;;6.95;2.55;;;;;;;;;;6283391;28;20041;-69
2021/10/05 08:44:28;;;;;;;3.33;1.13;;;;;;;;;;6288062;28;20128;-72
2021/10/05 08:47:30;;;;;;;5.22;1.33;;;;;;;;;;6278404;28;20205;-73
2021/10/05 08:50:31;;;;;;;3.17;1.10;;;;;;;;;;6282131;28;20139;-76
2021/10/05 08:53:35;;;;;;;4.68;1.38;;;;;;;;;;6273585;28;20066;-70
2021/10/05 08:56:38;;;;;;;5.03;1.60;;;;;;;;;;6273117;28;20052;-70
2021/10/05 08:59:40;;;;;;;6.10;1.55;;;;;;;;;;6275508;28;20041;-68
2021/10/05 09:02:47;;;;;;;6.68;1.40;;;;;;;;;;6266679;28;20045;-68
2021/10/05 09:05:49;;;;;;;7.43;1.17;;;;;;;;;;6272939;28;20043;-75
2021/10/05 09:08:53;;;;;;;4.72;1.20;;;;;;;;;;6282101;28;20044;-69
2021/10/05 09:11:55;;;;;;;5.97;1.08;;;;;;;;;;6279207;28;20089;-69
2021/10/05 09:14:58;;;;;;;5.70;1.30;;;;;;;;;;6286079;28;20040;-70
2021/10/05 09:18:00;;;;;;;7.30;1.52;;;;;;;;;;6273171;28;20072;-69
2021/10/05 09:21:01;;;;;;;8.38;1.52;;;;;;;;;;6281378;28;20593;-69
2021/10/05 09:24:07;;;;;;;7.93;1.30;;;;;;;;;;6292055;28;20051;-69
2021/10/05 09:27:09;;;;;;;8.23;2.33;;;;;;;;;;6271920;28;20163;-69
2021/10/05 09:30:15;;;;;;;7.20;2.35;;;;;;;;;;6278514;28;20052;-76
2021/10/05 09:33:17;;;;;;;11.93;2.35;;;;;;;;;;6271931;28;20520;-73
2021/10/05 09:36:25;;;;;;;5.93;1.77;;;;;;;;;;6275025;28;20050;-72
2021/10/05 09:39:36;;;;;;;6.18;1.40;;;;;;;;;;6280978;28;20048;-71
2021/10/05 09:42:41;;;;;;;4.95;1.58;;;;;;;;;;6281180;28;20036;-69
2021/10/05 09:45:43;;;;;;;6.15;1.80;;;;;;;;;;6281899;28;20083;-74
2021/10/05 09:48:45;;;;;;;6.28;1.88;;;;;;;;;;6290204;28;20453;-71
2021/10/05 09:51:56;;;;;;;7.90;2.10;;;;;;;;;;6278811;28;20043;-72
2021/10/05 09:54:58;;;;;;;10.07;2.00;;;;;;;;;;6284024;28;20051;-71
2021/10/05 09:58:01;;;;;;;5.90;1.40;;;;;;;;;;6278471;28;20053;-69
2021/10/05 10:01:02;;;;;;;10.65;2.05;;;;;;;;;;6271579;28;20095;-76
2021/10/05 10:04:04;;;;;;;4.57;1.80;;;;;;;;;;6280975;28;20056;-68
2021/10/05 10:07:07;;;;;;;3.75;1.60;;;;;;;;;;6279447;28;20040;-69
2021/10/05 10:10:11;;;;;;;3.97;1.48;;;;;;;;;;6281937;28;20045;-73
2021/10/05 10:13:19;;;;;;;5.13;1.63;;;;;;;;;;6277305;28;20535;-70
2021/10/05 10:16:21;;;;;;;6.68;1.77;;;;;;;;;;6272302;28;20096;-70
2021/10/05 10:19:29;;;;;;;4.03;1.50;;;;;;;;;;6272237;28;20598;-70
2021/10/05 10:22:30;;;;;;;8.07;2.17;;;;;;;;;;6272619;28;20044;-70
2021/10/05 10:25:33;;;;;;;6.90;1.85;;;;;;;;;;6277153;28;20073;-73
2021/10/05 10:28:38;;;;;;;3.90;1.30;;;;;;;;;;6279147;28;20060;-70
2021/10/05 10:31:41;;;;;;;5.25;1.60;;;;;;;;;;6271572;28;20093;-69
2021/10/05 10:34:44;;;;;;;7.20;1.80;;;;;;;;;;6277580;28;20174;-70
2021/10/05 10:37:48;;;;;;;7.05;1.58;;;;;;;;;;6274401;28;20040;-69
2021/10/05 10:40:50;;;;;;;8.05;2.00;;;;;;;;;;6280476;28;20529;-71
2021/10/05 10:43:56;;;;;;;7.28;2.47;;;;;;;;;;6279954;28;20419;-74
2021/10/05 10:47:07;;;;;;;9.73;1.90;;;;;;;;;;6275103;28;20052;-70
2021/10/05 10:50:11;;;;;;;9.55;2.45;;;;;;;;;;6280736;28;20037;-72
2021/10/05 10:53:12;;;;;;;5.55;1.52;;;;;;;;;;6273591;28;20080;-70
2021/10/05 10:56:15;;;;;;;7.32;1.67;;;;;;;;;;6276510;28;20127;-70
2021/10/05 10:59:20;;;;;;;4.00;1.55;;;;;;;;;;6280372;28;20051;-69
2021/10/05 11:02:22;;;;;;;7.00;1.90;;;;;;;;;;6268059;28;20423;-70
2021/10/05 11:05:25;;;;;;;5.68;1.50;;;;;;;;;;6275015;28;20041;-73
2021/10/05 11:08:27;;;;;;;5.63;2.08;;;;;;;;;;6277858;28;20056;-72
2021/10/05 11:11:30;;;;;;;6.97;1.95;;;;;;;;;;6274282;28;20053;-70
2021/10/05 11:14:35;;;;;;;7.68;2.15;;;;;;;;;;6279119;28;20052;-71
2021/10/05 11:17:37;;;;;;;6.75;1.83;;;;;;;;;;6268530;28;20353;-69
2021/10/05 11:20:43;;;;;;;4.57;1.48;;;;;;;;;;6271976;28;20494;-70
2021/10/05 11:23:45;;;;;;;5.95;1.55;;;;;;;;;;6278020;28;20041;-71
2021/10/05 11:26:50;;;;;;;8.05;1.75;;;;;;;;;;6276973;28;20075;-70
2021/10/05 11:29:59;;;;;;;5.60;1.40;;;;;;;;;;6284999;28;20037;-69
2021/10/05 11:33:01;;;;;;;4.72;1.42;;;;;;;;;;6263574;28;20044;-68
2021/10/05 11:36:11;;;;;;;6.03;1.20;;;;;;;;;;6282719;28;20036;-69
2021/10/05 11:39:20;;;;;;;5.20;1.33;;;;;;;;;;6279401;28;20059;-69
2021/10/05 11:42:23;;;;;;;7.72;1.38;;;;;;;;;;6275156;28;20041;-71
2021/10/05 11:45:29;;;;;;;4.93;1.17;;;;;;;;;;6274810;28;20637;-72
2021/10/05 11:48:38;;;;;;;5.03;1.20;;;;;;;;;;6270188;28;20064;-69
2021/10/05 11:51:43;;;;;;;3.70;0.95;;;;;;;;;;6267867;28;20049;-68
2021/10/05 11:54:45;;;;;;;5.38;1.10;;;;;;;;;;6276224;28;20036;-71
2021/10/05 11:57:46;;;;;;;8.13;1.45;;;;;;;;;;6276904;28;20151;-69
2021/10/05 12:00:49;;;;;;;7.45;1.50;;;;;;;;;;6274901;28;20504;-69
2021/10/05 12:03:52;;;;;;;4.67;1.37;;;;;;;;;;6273824;28;20131;-70
2021/10/05 12:06:56;;;;;;;9.13;1.20;;;;;;;;;;6270078;28;20053;-69
2021/10/05 12:09:59;;;;;;;3.03;0.90;;;;;;;;;;6280037;28;20062;-68
2021/10/05 12:13:01;;;;;;;3.00;1.00;;;;;;;;;;6274186;28;20094;-70
2021/10/05 12:16:13;;;;;;;8.35;2.13;;;;;;;;;;6270647;28;20498;-73
2021/10/05 12:19:15;;;;;;;4.55;1.27;;;;;;;;;;6278061;28;20059;-70
2021/10/05 12:22:20;;;;;;;5.28;1.55;;;;;;;;;;6279022;28;20515;-71
2021/10/05 12:25:24;;;;;;;5.53;1.20;;;;;;;;;;6274502;28;20060;-73
2021/10/05 12:28:25;;;;;;;;;;;;;;;;;;6279234;28;20571;-70
2021/10/05 12:31:29;;;;;;;4.10;1.20;;;;;;;;;;6270777;28;19999;-69
2021/10/05 12:34:35;;;;;;;4.18;1.20;;;;;;;;;;6275534;28;20053;-69
2021/10/05 12:37:36;;;;;;;3.33;1.10;;;;;;;;;;6453346;22;20075;-69
2021/10/05 12:40:43;;;;;;;4.63;1.38;;;;;;;;;;6219460;28;20214;-69
2021/10/05 12:43:46;;;;;;;4.40;1.40;;;;;;;;;;6226972;28;20207;-69
2021/10/05 12:46:57;;;;;;;6.20;1.10;;;;;;;;;;6216353;28;20052;-69
2021/10/05 12:49:59;;;;;;;4.20;1.20;;;;;;;;;;6227344;28;20049;-69
2021/10/05 12:53:02;;;;;;;4.30;1.00;;;;;;;;;;6216665;28;20115;-71
2021/10/05 12:56:04;;;;;;;5.60;1.00;;;;;;;;;;6221620;28;20061;-69
2021/10/05 12:59:08;;;;;;;2.75;0.98;;;;;;;;;;6230206;28;20049;-70
2021/10/05 13:02:10;;;;;;;2.78;0.90;;;;;;;;;;6213597;28;20111;-69
2021/10/05 13:05:13;;;;;;;3.37;1.10;;;;;;;;;;6217391;28;20416;-70
2021/10/05 13:08:14;;;;;;;6.43;1.42;;;;;;;;;;6230487;28;20472;-69
2021/10/05 13:11:16;;;;;;;5.00;2.00;;;;;;;;;;6220617;28;20058;-69
2021/10/05 13:14:18;;;;;;;10.80;1.48;;;;;;;;;;6232240;28;20057;-69
2021/10/05 13:17:21;;;;;;;8.13;1.50;;;;;;;;;;6208672;28;20104;-72
2021/10/05 13:20:23;;;;;;;5.68;1.25;;;;;;;;;;6218980;28;20065;-69
2021/10/05 13:23:25;;;;;;;8.02;1.13;;;;;;;;;;6227472;28;20049;-70
2021/10/05 13:26:27;;;;;;;4.03;1.20;;;;;;;;;;6221710;28;20478;-70
2021/10/05 13:29:28;;;;;;;3.75;1.23;;;;;;;;;;6229455;28;20755;-70
2021/10/05 13:32:31;;;;;;;3.80;1.45;;;;;;;;;;6212242;28;20057;-69
2021/10/05 13:35:33;;;;;;;6.13;1.08;;;;;;;;;;6213250;28;20426;-70
2021/10/05 13:38:35;;;;;;;6.00;1.20;;;;;;;;;;6216492;28;20057;-69
2021/10/05 13:41:37;;;;;;;3.40;1.33;;;;;;;;;;6216712;28;20057;-69
2021/10/05 13:44:39;;;;;;;5.53;1.60;;;;;;;;;;6229858;28;20061;-69
2021/10/05 13:47:42;;;;;;;4.55;1.08;;;;;;;;;;6212626;28;20500;-69
2021/10/05 13:50:43;;;;;;;5.47;1.20;;;;;;;;;;6218550;28;20088;-72
2021/10/05 13:53:45;;;;;;;4.00;1.20;;;;;;;;;;6227545;28;20468;-70
2021/10/05 13:56:47;;;;;;;5.93;1.35;;;;;;;;;;6220939;28;20075;-68
2021/10/05 13:59:48;;;;;;;3.85;1.60;;;;;;;;;;6231355;28;20588;-69
2021/10/05 14:02:51;;;;;;;6.00;1.88;;;;;;;;;;6213313;28;20069;-69
2021/10/05 14:05:53;;;;;;;3.15;1.20;;;;;;;;;;6222023;28;20511;-69
2021/10/05 14:08:54;;;;;;;4.03;1.40;;;;;;;;;;6230640;28;20049;-69
2021/10/05 14:11:56;;;;;;;6.03;1.73;;;;;;;;;;6220587;28;20188;-68
2021/10/05 14:14:57;;;;;;;5.68;1.35;;;;;;;;;;6233433;28;20597;-71
2021/10/05 14:18:03;;;;;;;7.28;1.55;;;;;;;;;;6212134;28;20042;-69
2021/10/05 14:21:06;;;;;;;3.15;1.30;;;;;;;;;;6221799;28;20406;-72
2021/10/05 14:24:08;;;;;;;4.32;1.20;;;;;;;;;;6234184;28;20133;-71
2021/10/05 14:27:09;;;;;;;4.38;1.30;;;;;;;;;;6223100;28;22207;-69
2021/10/05 14:30:11;;;;;;;5.68;1.40;;;;;;;;;;6224539;28;20056;-72
2021/10/05 14:33:16;;;;;;;3.80;1.48;;;;;;;;;;6224692;28;20053;-69
2021/10/05 14:36:18;;;;;;;4.63;2.05;;;;;;;;;;6219537;28;20044;-69
2021/10/05 14:39:20;;;;;;;8.30;2.25;;;;;;;;;;6230460;28;20463;-69
2021/10/05 14:42:22;;;;;;;4.68;1.85;;;;;;;;;;6222156;28;20046;-69
2021/10/05 14:45:23;;;;;;;5.65;1.98;;;;;;;;;;6222567;28;20550;-69
2021/10/05 14:48:26;;;;;;;6.95;2.03;;;;;;;;;;6229846;28;20179;-70
2021/10/05 14:51:28;;;;;;;6.47;2.07;;;;;;;;;;6234843;28;20421;-69
2021/10/05 14:54:29;;;;;;;5.47;1.92;;;;;;;;;;6244592;28;20569;-69
2021/10/05 14:57:31;;;;;;;4.47;1.75;;;;;;;;;;6228578;28;20042;-68
2021/10/05 15:00:33;;;;;;;4.65;1.92;;;;;;;;;;6220743;28;21926;-69
2021/10/05 15:03:36;;;;;;;4.25;1.85;;;;;;;;;;6229360;28;20058;-69
2021/10/05 15:06:37;;;;;;;5.47;1.80;;;;;;;;;;6223506;28;20053;-72
2021/10/05 15:09:39;;;;;;;5.20;1.83;;;;;;;;;;6238143;28;20057;-69
2021/10/05 15:12:41;;;;;;;5.15;1.90;;;;;;;;;;6230985;28;20122;-69
2021/10/05 15:15:42;;;;;;;5.78;1.80;;;;;;;;;;6221500;28;20087;-72
2021/10/05 15:18:46;;;;;;;4.38;1.83;;;;;;;;;;6233351;28;20087;-69
2021/10/05 15:21:50;;;;;;;5.05;1.85;;;;;;;;;;6222310;28;20049;-69
2021/10/05 15:24:51;;;;;;;5.28;1.90;;;;;;;;;;6229572;28;20553;-69
2021/10/05 15:27:53;;;;;;;6.72;2.13;;;;;;;;;;6219540;28;20095;-69
2021/10/05 15:30:54;;;;;;;4.68;1.67;;;;;;;;;;6212578;28;20184;-69
2021/10/05 15:33:57;;;;;;;3.53;1.73;;;;;;;;;;6223681;28;20419;-69
2021/10/05 15:36:59;;;;;;;6.43;2.10;;;;;;;;;;6226190;28;20164;-69
2021/10/05 15:40:01;;;;;;;4.28;1.88;;;;;;;;;;6236384;28;20041;-69
2021/10/05 15:43:03;;;;;;;5.20;1.92;;;;;;;;;;6230029;28;20038;-70
2021/10/05 15:46:05;;;;;;;5.78;2.20;;;;;;;;;;6222076;28;20540;-69
2021/10/05 15:49:08;;;;;;;6.55;2.55;;;;;;;;;;6236662;28;20174;-69
2021/10/05 15:52:16;;;;;;;4.47;2.33;;;;;;;;;;6228488;28;20601;-69
2021/10/05 15:55:20;;;;;;;8.73;2.38;;;;;;;;;;6228701;28;20072;-69
2021/10/05 15:58:21;;;;;;;7.07;2.22;;;;;;;;;;6228401;28;20053;-69
2021/10/05 16:01:23;;;;;;;5.32;2.17;;;;;;;;;;6211443;28;20136;-70
2021/10/05 16:04:28;;;;;;;4.97;2.03;;;;;;;;;;6227508;28;20034;-71
2021/10/05 16:07:30;;;;;;;6.50;1.95;;;;;;;;;;6222526;28;20544;-70
2021/10/05 16:10:31;;;;;;;4.65;1.85;;;;;;;;;;6219384;28;20041;-69
2021/10/05 16:13:33;;;;;;;5.05;1.98;;;;;;;;;;6226641;28;20528;-68
2021/10/05 16:16:34;;;;;;;4.82;2.30;;;;;;;;;;6218385;28;20037;-69
2021/10/05 16:19:37;;;;;;;7.20;2.58;;;;;;;;;;6226899;28;20068;-68
2021/10/05 16:22:39;;;;;;;8.83;4.47;;;;;;;;;;6217581;28;20115;-68
2021/10/05 16:25:41;;;;;;;11.27;5.50;;;;;;;;;;6218396;28;20099;-71
2021/10/05 16:28:43;;;;;;;5.50;2.45;;;;;;;;;;6231780;28;20140;-70
2021/10/05 16:31:44;;;;;;;6.40;2.70;;;;;;;;;;6213575;28;20053;-69
2021/10/05 16:34:48;;;;;;;5.32;2.17;;;;;;;;;;6229500;28;20049;-71
2021/10/05 16:37:50;;;;;;;7.43;2.65;;;;;;;;;;6217804;28;20505;-69
2021/10/05 16:40:52;;;;;;;6.28;2.75;;;;;;;;;;6220728;28;20046;-68
2021/10/05 16:43:53;;;;;;;5.90;3.00;;;;;;;;;;6239865;28;20045;-68
2021/10/05 16:46:56;;;;;;;7.50;2.90;;;;;;;;;;6219181;28;20136;-69
2021/10/05 16:49:59;;;;;;;6.40;2.55;;;;;;;;;;6227727;28;20397;-69
2021/10/05 16:53:02;;;;;;;4.07;2.47;;;;;;;;;;6217449;28;20046;-69
2021/10/05 16:56:04;;;;;;;6.07;2.27;;;;;;;;;;6192428;28;20072;-69
2021/10/05 16:59:06;;;;;;;5.60;2.25;;;;;;;;;;6232303;28;20045;-70
2021/10/05 17:02:07;;;;;;;4.35;2.55;;;;;;;;;;6215937;28;20114;-71
2021/10/05 17:05:11;;;;;;;5.78;3.15;;;;;;;;;;6229663;28;20041;-71
2021/10/05 17:08:12;;;;;;;4.57;2.50;;;;;;;;;;6233190;28;20057;-69
2021/10/05 17:11:14;;;;;;;5.18;2.35;;;;;;;;;;6221890;28;20048;-69
2021/10/05 17:14:16;;;;;;;4.63;2.72;;;;;;;;;;6240727;28;20520;-69
2021/10/05 17:17:17;;;;;;;3.80;2.40;;;;;;;;;;6223442;28;20110;-69
2021/10/05 17:20:20;;;;;;;5.15;2.47;;;;;;;;;;6232666;28;21146;-68
2021/10/05 17:23:22;;;;;;;5.57;2.73;;;;;;;;;;6237212;28;20053;-68
2021/10/05 17:26:24;;;;;;;5.68;2.85;;;;;;;;;;6229322;28;20052;-69
2021/10/05 17:29:26;;;;;;;4.60;2.53;;;;;;;;;;6236360;28;20053;-70
2021/10/05 17:32:28;;;;;;;6.65;2.67;;;;;;;;;;6219409;28;20045;-68
2021/10/05 17:35:31;;;;;;;5.32;2.92;;;;;;;;;;6226814;28;21011;-71
2021/10/05 17:38:33;;;;;;;5.20;3.53;;;;;;;;;;6231689;28;20123;-69
2021/10/05 17:41:34;;;;;;;4.05;2.80;;;;;;;;;;6223274;28;20397;-69
2021/10/05 17:44:36;;;;;;;6.20;3.05;;;;;;;;;;6234278;28;20049;-69
2021/10/05 17:47:39;;;;;;;7.72;3.50;;;;;;;;;;6211157;28;20136;-69
2021/10/05 17:50:43;;;;;;;8.40;3.20;;;;;;;;;;6219533;28;20045;-68
2021/10/05 17:53:44;;;;;;;7.75;3.67;;;;;;;;;;6232440;28;20053;-68
2021/10/05 17:56:46;;;;;;;5.85;3.30;;;;;;;;;;6231476;28;20424;-68
2021/10/05 17:59:48;;;;;;;6.63;4.07;;;;;;;;;;6245110;28;20045;-68
2021/10/05 18:02:50;;;;;;;9.30;3.55;;;;;;;;;;6220174;28;20120;-68